createdAt,value
2018-09-20T00:00:42.362Z,851.43
2018-09-20T00:03:36.492Z,795.13
2018-09-20T00:06:04.339Z,829.67
2018-09-20T00:08:32.203Z,827.10
2018-09-20T00:11:00.050Z,859.70
2018-09-20T00:13:27.911Z,889.13
2018-09-20T00:15:55.809Z,859.40
2018-09-20T00:18:23.683Z,919.77
2018-09-20T00:20:51.531Z,878.43
2018-09-20T00:23:19.401Z,852.63
2018-09-20T00:25:47.267Z,876.50
2018-09-20T00:28:15.130Z,926.77
2018-09-20T00:30:42.990Z,884.50
2018-09-20T00:33:10.855Z,847.03
2018-09-20T00:35:38.705Z,953.30
2018-09-20T00:38:06.580Z,855.10
2018-09-20T00:40:34.418Z,847.87
2018-09-20T00:43:02.273Z,884.17
2018-09-20T00:45:30.115Z,889.13
2018-09-20T00:47:57.977Z,898.83
2018-09-20T00:50:25.848Z,869.73
2018-09-20T00:52:53.698Z,881.07
2018-09-20T00:55:21.554Z,958.87
2018-09-20T00:57:49.411Z,905.27
2018-09-20T01:00:17.263Z,965.37
2018-09-20T01:02:45.122Z,914.97
2018-09-20T01:05:13.057Z,970.67
2018-09-20T01:07:41.018Z,939.63
2018-09-20T01:10:08.875Z,985.00
2018-09-20T01:12:36.727Z,923.60
2018-09-20T01:15:05.138Z,914.77
2018-09-20T01:17:32.983Z,937.83
2018-09-20T01:20:00.863Z,957.37
2018-09-20T01:22:28.729Z,929.03
2018-09-20T01:24:56.623Z,894.00
2018-09-20T01:27:24.466Z,917.63
2018-09-20T01:29:52.325Z,984.80
2018-09-20T01:32:20.189Z,983.40
2018-09-20T01:34:48.051Z,974.90
2018-09-20T01:37:15.924Z,999.90
2018-09-20T01:39:43.774Z,939.60
2018-09-20T01:42:11.624Z,990.97
2018-09-20T01:44:39.482Z,999.90
2018-09-20T01:47:07.334Z,999.90
2018-09-20T01:49:35.206Z,977.77
2018-09-20T01:52:03.078Z,999.90
2018-09-20T01:54:30.940Z,999.90
2018-09-20T01:56:58.794Z,999.90
2018-09-20T01:59:26.658Z,999.90
2018-09-20T02:01:54.524Z,999.90
2018-09-20T02:04:22.374Z,991.90
2018-09-20T02:06:50.229Z,999.90
2018-09-20T02:09:18.093Z,999.90
2018-09-20T02:11:45.933Z,999.90
2018-09-20T02:14:13.790Z,999.90
2018-09-20T02:16:41.642Z,999.90
2018-09-20T02:19:09.502Z,999.90
2018-09-20T02:21:37.348Z,987.13
2018-09-20T02:24:06.347Z,908.03
2018-09-20T02:26:34.231Z,934.10
2018-09-20T02:29:02.121Z,910.00
2018-09-20T02:31:29.998Z,965.67
2018-09-20T02:33:57.882Z,987.17
2018-09-20T02:36:25.826Z,892.13
2018-09-20T02:38:53.686Z,831.17
2018-09-20T02:41:21.563Z,911.97
2018-09-20T02:43:49.422Z,997.70
2018-09-20T02:46:17.370Z,884.50
2018-09-20T02:48:45.226Z,870.80
2018-09-20T02:51:13.070Z,867.83
2018-09-20T02:53:40.914Z,816.20
2018-09-20T02:56:08.765Z,989.77
2018-09-20T02:58:36.617Z,860.97
2018-09-20T03:01:04.585Z,999.90
2018-09-20T03:03:32.436Z,999.90
2018-09-20T03:06:00.294Z,999.90
2018-09-20T03:08:28.166Z,999.90
2018-09-20T03:10:56.027Z,917.70
2018-09-20T03:13:23.870Z,878.37
2018-09-20T03:15:51.723Z,887.67
2018-09-20T03:18:19.586Z,637.40
2018-09-20T03:20:47.444Z,673.23
2018-09-20T03:23:15.294Z,694.47
2018-09-20T03:25:43.148Z,763.50
2018-09-20T03:28:10.986Z,769.37
2018-09-20T03:30:38.932Z,705.43
2018-09-20T03:33:06.832Z,757.13
2018-09-20T03:35:34.820Z,776.20
2018-09-20T03:38:02.670Z,887.37
2018-09-20T03:40:30.522Z,880.10
2018-09-20T03:42:58.370Z,917.90
2018-09-20T03:45:26.232Z,892.73
2018-09-20T03:47:54.074Z,959.10
2018-09-20T03:50:21.929Z,885.53
2018-09-20T03:52:49.790Z,785.10
2018-09-20T03:55:17.845Z,914.43
2018-09-20T03:57:45.706Z,865.83
2018-09-20T04:00:13.563Z,865.20
2018-09-20T04:02:41.462Z,870.20
2018-09-20T04:05:09.323Z,851.47
2018-09-20T04:07:37.170Z,956.53
2018-09-20T04:10:05.042Z,992.83
2018-09-20T04:12:32.894Z,997.43
2018-09-20T04:15:00.750Z,859.20
2018-09-20T04:17:28.605Z,841.20
2018-09-20T04:19:56.469Z,811.93
2018-09-20T04:22:24.316Z,859.33
2018-09-20T04:24:52.167Z,901.83
2018-09-20T04:27:20.017Z,934.33
2018-09-20T04:29:47.981Z,890.07
2018-09-20T04:32:15.830Z,877.27
2018-09-20T04:34:43.682Z,806.80
2018-09-20T04:37:11.542Z,870.77
2018-09-20T04:39:39.399Z,810.63
2018-09-20T04:42:07.245Z,762.37
2018-09-20T04:44:35.090Z,759.93
2018-09-20T04:47:02.947Z,937.67
2018-09-20T04:49:30.798Z,901.23
2018-09-20T04:51:58.662Z,834.20
2018-09-20T04:54:26.530Z,712.50
2018-09-20T04:56:54.390Z,841.07
2018-09-20T04:59:22.247Z,842.13
2018-09-20T05:01:50.102Z,841.20
2018-09-20T05:04:17.946Z,872.07
2018-09-20T05:06:45.814Z,866.27
2018-09-20T05:09:14.430Z,820.10
2018-09-20T05:11:43.137Z,983.37
2018-09-20T05:14:11.283Z,994.13
2018-09-20T05:16:39.365Z,960.30
2018-09-20T05:19:07.217Z,966.80
2018-09-20T05:21:35.079Z,753.93
2018-09-20T05:24:03.270Z,911.93
2018-09-20T05:26:31.134Z,798.00
2018-09-20T05:28:59.018Z,847.10
2018-09-20T05:31:26.890Z,765.70
2018-09-20T05:33:54.771Z,954.37
2018-09-20T05:36:22.910Z,964.37
2018-09-20T05:38:50.814Z,945.23
2018-09-20T05:41:18.702Z,948.03
2018-09-20T05:43:46.901Z,927.13
2018-09-20T05:46:14.778Z,876.90
2018-09-20T05:48:42.633Z,818.83
2018-09-20T05:51:10.499Z,952.33
2018-09-20T05:53:38.442Z,990.73
2018-09-20T05:56:06.308Z,999.90
2018-09-20T05:58:34.166Z,999.90
2018-09-20T06:01:02.024Z,992.80
2018-09-20T06:03:29.885Z,976.80
2018-09-20T06:05:57.802Z,935.53
2018-09-20T06:08:25.590Z,921.93
2018-09-20T06:10:53.447Z,925.30
2018-09-20T06:13:21.314Z,933.60
2018-09-20T06:15:49.174Z,937.43
2018-09-20T06:18:17.026Z,900.43
2018-09-20T06:20:44.865Z,804.57
2018-09-20T06:23:12.720Z,835.37
2018-09-20T06:25:40.584Z,817.03
2018-09-20T06:28:08.458Z,840.00
2018-09-20T06:30:36.300Z,819.63
2018-09-20T06:33:04.178Z,856.83
2018-09-20T06:35:32.462Z,809.03
2018-09-20T06:38:00.317Z,905.77
2018-09-20T06:40:28.158Z,798.27
2018-09-20T06:42:56.035Z,817.90
2018-09-20T06:45:23.879Z,821.50
2018-09-20T06:47:51.733Z,767.07
2018-09-20T06:50:19.712Z,940.90
2018-09-20T06:52:47.545Z,927.47
2018-09-20T06:55:15.423Z,999.90
2018-09-20T06:57:43.291Z,999.90
2018-09-20T07:00:11.154Z,999.90
2018-09-20T07:02:39.010Z,999.90
2018-09-20T07:05:06.891Z,999.90
2018-09-20T07:07:34.760Z,999.90
2018-09-20T07:10:02.614Z,999.90
2018-09-20T07:12:30.825Z,999.90
2018-09-20T07:14:58.741Z,999.90
2018-09-20T07:17:26.600Z,999.90
2018-09-20T07:19:54.618Z,999.90
2018-09-20T07:22:22.501Z,999.90
2018-09-20T07:24:50.419Z,999.90
2018-09-20T07:27:18.282Z,999.90
2018-09-20T07:29:46.175Z,999.90
2018-09-20T07:32:14.043Z,999.90
2018-09-20T07:34:41.901Z,999.90
2018-09-20T07:37:09.762Z,999.90
2018-09-20T07:39:37.667Z,999.90
2018-09-20T07:42:05.521Z,999.90
2018-09-20T07:44:33.382Z,999.90
2018-09-20T07:47:01.239Z,999.90
2018-09-20T07:49:29.102Z,999.90
2018-09-20T07:51:57.000Z,999.90
2018-09-20T07:54:24.862Z,999.90
2018-09-20T07:56:52.724Z,999.90
2018-09-20T07:59:20.586Z,999.90
2018-09-20T08:01:48.470Z,999.90
2018-09-20T08:04:16.318Z,999.90
2018-09-20T08:06:44.165Z,999.90
2018-09-20T08:09:12.682Z,999.90
2018-09-20T08:11:40.535Z,999.90
2018-09-20T08:14:08.522Z,999.90
2018-09-20T08:16:36.365Z,999.90
2018-09-20T08:19:04.274Z,999.90
2018-09-20T08:21:32.165Z,999.90
2018-09-20T08:24:00.010Z,999.90
2018-09-20T08:26:27.871Z,999.90
2018-09-20T08:28:55.750Z,999.90
2018-09-20T08:31:23.602Z,999.90
2018-09-20T08:33:51.458Z,999.90
2018-09-20T08:36:19.315Z,999.90
2018-09-20T08:38:47.242Z,999.90
2018-09-20T08:41:15.089Z,999.90
2018-09-20T08:43:42.962Z,999.90
2018-09-20T08:46:10.810Z,999.90
2018-09-20T08:48:38.672Z,999.90
2018-09-20T08:51:06.521Z,999.90
2018-09-20T08:53:34.386Z,999.90
2018-09-20T08:56:02.238Z,999.90
2018-09-20T08:58:32.878Z,999.90
2018-09-20T09:01:01.011Z,999.90
2018-09-20T09:03:28.941Z,999.90
2018-09-20T09:05:56.839Z,999.90
2018-09-20T09:08:24.966Z,999.90
2018-09-20T09:10:52.830Z,999.90
2018-09-20T09:13:20.704Z,999.90
2018-09-20T09:15:48.617Z,999.90
2018-09-20T09:18:16.752Z,999.90
2018-09-20T09:20:44.590Z,999.90
2018-09-20T09:23:12.448Z,999.90
2018-09-20T09:25:40.334Z,999.90
2018-09-20T09:28:08.397Z,999.90
2018-09-20T09:30:36.273Z,999.90
2018-09-20T09:33:04.207Z,999.90
2018-09-20T09:35:32.180Z,999.90
2018-09-20T09:38:00.031Z,999.90
2018-09-20T09:40:27.888Z,999.90
2018-09-20T09:42:55.735Z,999.90
2018-09-20T09:45:23.602Z,999.90
2018-09-20T09:47:51.453Z,999.90
2018-09-20T09:50:19.325Z,999.90
2018-09-20T09:52:47.185Z,999.90
2018-09-20T09:55:15.044Z,999.90
2018-09-20T09:57:42.880Z,999.90
2018-09-20T10:00:10.767Z,999.90
2018-09-20T10:02:38.710Z,999.90
2018-09-20T10:05:06.527Z,999.90
2018-09-20T10:07:34.380Z,999.90
2018-09-20T10:10:02.232Z,999.90
2018-09-20T10:12:30.087Z,999.90
2018-09-20T10:14:57.953Z,936.57
2018-09-20T10:17:25.802Z,979.40
2018-09-20T10:19:53.683Z,953.80
2018-09-20T10:22:21.517Z,999.90
2018-09-20T10:24:50.745Z,977.30
2018-09-20T10:27:18.588Z,824.07
2018-09-20T10:29:46.434Z,924.37
2018-09-20T10:32:14.295Z,999.90
2018-09-20T10:34:42.160Z,914.50
2018-09-20T10:37:10.039Z,999.90
2018-09-20T10:39:37.891Z,999.90
2018-09-20T10:42:05.737Z,999.90
2018-09-20T10:44:33.617Z,999.90
2018-09-20T10:47:01.510Z,999.90
2018-09-20T10:49:29.349Z,999.90
2018-09-20T10:51:57.202Z,999.90
2018-09-20T10:54:25.055Z,999.90
2018-09-20T10:56:52.914Z,897.33
2018-09-20T10:59:20.771Z,999.90
2018-09-20T11:01:48.643Z,999.90
2018-09-20T11:04:16.488Z,849.53
2018-09-20T11:06:44.342Z,832.53
2018-09-20T11:09:12.247Z,876.07
2018-09-20T11:11:40.106Z,880.00
2018-09-20T11:14:07.967Z,999.90
2018-09-20T11:16:36.464Z,954.53
2018-09-20T11:19:04.314Z,919.00
2018-09-20T11:21:32.166Z,818.63
2018-09-20T11:24:00.001Z,841.90
2018-09-20T11:26:27.870Z,750.70
2018-09-20T11:28:55.722Z,750.87
2018-09-20T11:31:23.582Z,967.40
2018-09-20T11:33:51.482Z,961.47
2018-09-20T11:36:19.346Z,999.90
2018-09-20T11:38:47.157Z,999.90
2018-09-20T11:41:15.166Z,934.60
2018-09-20T11:43:43.029Z,970.50
2018-09-20T11:46:10.882Z,829.43
2018-09-20T11:48:38.738Z,722.10
2018-09-20T11:51:06.606Z,910.93
2018-09-20T11:53:34.483Z,753.60
2018-09-20T11:56:02.339Z,882.33
2018-09-20T11:58:30.274Z,927.70
2018-09-20T12:00:58.148Z,999.90
2018-09-20T12:03:26.051Z,676.13
2018-09-20T12:05:53.902Z,691.47
2018-09-20T12:08:21.746Z,708.63
2018-09-20T12:10:49.613Z,698.70
2018-09-20T12:13:17.547Z,585.93
2018-09-20T12:15:45.511Z,545.33
2018-09-20T12:18:13.480Z,362.37
2018-09-20T12:20:41.335Z,865.67
2018-09-20T12:23:09.191Z,999.90
2018-09-20T12:25:37.046Z,865.77
2018-09-20T12:28:05.145Z,873.53
2018-09-20T12:30:33.006Z,992.40
2018-09-20T12:33:00.874Z,808.90
2018-09-20T12:35:28.870Z,968.23
2018-09-20T12:37:56.644Z,836.77
2018-09-20T12:40:24.482Z,738.67
2018-09-20T12:42:52.385Z,612.00
2018-09-20T12:45:20.194Z,575.57
2018-09-20T12:47:48.059Z,713.87
2018-09-20T12:50:15.915Z,638.80
2018-09-20T12:52:43.775Z,840.07
2018-09-20T12:55:11.622Z,860.30
2018-09-20T12:57:39.476Z,743.00
2018-09-20T13:00:08.199Z,497.30
2018-09-20T13:02:36.075Z,632.07
2018-09-20T13:05:03.945Z,467.90
2018-09-20T13:07:31.835Z,491.73
2018-09-20T13:09:59.693Z,686.47
2018-09-20T13:12:27.544Z,811.77
2018-09-20T13:14:55.395Z,574.33
2018-09-20T13:17:23.247Z,577.63
2018-09-20T13:19:51.115Z,721.53
2018-09-20T13:22:18.956Z,476.40
2018-09-20T13:24:46.805Z,461.07
2018-09-20T13:27:14.673Z,372.33
2018-09-20T13:29:42.517Z,543.93
2018-09-20T13:32:10.370Z,235.30
2018-09-20T13:34:38.213Z,303.70
2018-09-20T13:37:06.151Z,236.53
2018-09-20T13:39:33.950Z,602.73
2018-09-20T13:42:01.797Z,619.13
2018-09-20T13:44:29.647Z,568.40
2018-09-20T13:46:57.502Z,739.93
2018-09-20T13:49:25.354Z,418.63
2018-09-20T13:51:53.195Z,869.33
2018-09-20T13:54:21.041Z,808.77
2018-09-20T13:56:48.891Z,454.93
2018-09-20T13:59:16.754Z,479.80
2018-09-20T14:01:44.603Z,612.53
2018-09-20T14:04:12.459Z,450.97
2018-09-20T14:06:40.315Z,805.83
2018-09-20T14:09:08.766Z,580.67
2018-09-20T14:11:36.622Z,750.23
2018-09-20T14:14:04.474Z,728.53
2018-09-20T14:16:32.322Z,832.07
2018-09-20T14:19:00.198Z,658.80
2018-09-20T14:21:28.046Z,798.37
2018-09-20T14:23:55.901Z,570.87
2018-09-20T14:26:23.775Z,783.03
2018-09-20T14:28:51.741Z,843.87
2018-09-20T14:31:19.586Z,661.50
2018-09-20T14:33:47.459Z,481.13
2018-09-20T14:36:15.321Z,755.20
2018-09-20T14:38:43.170Z,703.83
2018-09-20T14:41:11.033Z,967.53
2018-09-20T14:43:38.886Z,752.27
2018-09-20T14:46:06.767Z,848.03
2018-09-20T14:48:34.626Z,917.57
2018-09-20T14:51:02.522Z,909.90
2018-09-20T14:53:30.391Z,839.03
2018-09-20T14:55:58.238Z,747.87
2018-09-20T14:58:26.091Z,999.90
2018-09-20T15:00:53.959Z,907.67
2018-09-20T15:03:21.811Z,893.57
2018-09-20T15:05:50.844Z,993.80
2018-09-20T15:08:18.735Z,921.33
2018-09-20T15:10:46.854Z,999.90
2018-09-20T15:13:15.759Z,999.90
2018-09-20T15:15:43.622Z,958.33
2018-09-20T15:18:11.590Z,999.90
2018-09-20T15:20:39.500Z,999.90
2018-09-20T15:23:07.454Z,999.90
2018-09-20T15:25:35.411Z,990.37
2018-09-20T15:28:03.303Z,998.17
2018-09-20T15:30:31.147Z,981.20
2018-09-20T15:32:59.014Z,997.80
2018-09-20T15:35:27.903Z,999.90
2018-09-20T15:37:55.874Z,999.90
2018-09-20T15:40:23.725Z,999.90
2018-09-20T15:42:51.581Z,999.90
2018-09-20T15:45:19.979Z,999.90
2018-09-20T15:47:47.889Z,999.90
2018-09-20T15:50:15.835Z,999.90
2018-09-20T15:52:43.927Z,999.90
2018-09-20T15:55:11.809Z,999.90
2018-09-20T15:57:39.652Z,999.90
2018-09-20T16:00:08.801Z,999.90
2018-09-20T16:02:36.838Z,999.90
2018-09-20T16:05:04.842Z,999.90
2018-09-20T16:07:32.688Z,999.90
2018-09-20T16:10:00.550Z,999.90
2018-09-20T16:12:28.408Z,999.90
2018-09-20T16:14:56.294Z,999.90
2018-09-20T16:17:24.162Z,999.90
2018-09-20T16:19:52.028Z,999.90
2018-09-20T16:22:19.867Z,999.90
2018-09-20T16:24:47.742Z,999.90
2018-09-20T16:27:15.639Z,999.90
2018-09-20T16:29:45.522Z,999.90
2018-09-20T16:32:22.778Z,999.90
2018-09-20T16:34:57.649Z,999.90
2018-09-20T16:37:31.054Z,999.90
2018-09-20T16:39:59.338Z,999.90
2018-09-20T16:42:28.602Z,999.90
2018-09-20T16:44:56.459Z,999.90
2018-09-20T16:47:24.306Z,999.90
2018-09-20T16:49:52.191Z,999.90
2018-09-20T16:52:20.107Z,999.90
2018-09-20T16:54:47.967Z,999.90
2018-09-20T16:57:15.810Z,999.90
2018-09-20T16:59:43.670Z,999.90
2018-09-20T17:02:11.533Z,999.90
2018-09-20T17:04:39.402Z,999.90
2018-09-20T17:07:07.321Z,999.90
2018-09-20T17:09:35.131Z,999.90
2018-09-20T17:12:03.070Z,999.90
2018-09-20T17:14:30.934Z,999.90
2018-09-20T17:16:58.778Z,999.90
2018-09-20T17:19:26.623Z,999.90
2018-09-20T17:21:54.475Z,999.90
2018-09-20T17:24:22.330Z,999.90
2018-09-20T17:26:50.269Z,999.90
2018-09-20T17:29:18.134Z,999.90
2018-09-20T17:31:45.998Z,999.90
2018-09-20T17:34:13.904Z,999.90
2018-09-20T17:36:41.856Z,999.90
2018-09-20T17:39:10.999Z,999.90
2018-09-20T17:41:39.379Z,999.90
2018-09-20T17:44:08.155Z,999.90
2018-09-20T17:46:36.014Z,999.90
2018-09-20T17:49:03.887Z,999.90
2018-09-20T17:51:31.906Z,999.90
2018-09-20T17:53:59.875Z,999.90
2018-09-20T17:56:27.869Z,999.90
2018-09-20T17:58:55.854Z,999.90
2018-09-20T18:01:24.794Z,999.90
2018-09-20T18:03:52.708Z,999.90
2018-09-20T18:06:20.692Z,946.63
2018-09-20T18:08:48.613Z,949.83
2018-09-20T18:11:16.542Z,932.07
2018-09-20T18:13:44.419Z,916.97
2018-09-20T18:16:12.358Z,856.33
2018-09-20T18:18:41.278Z,843.43
2018-09-20T18:21:09.141Z,895.17
2018-09-20T18:23:36.998Z,962.10
2018-09-20T18:26:04.928Z,885.17
2018-09-20T18:28:32.974Z,851.17
2018-09-20T18:31:00.976Z,863.03
2018-09-20T18:33:28.960Z,781.37
2018-09-20T18:35:56.870Z,739.17
2018-09-20T18:38:24.928Z,794.23
2018-09-20T18:40:52.880Z,878.40
2018-09-20T18:43:20.777Z,866.83
2018-09-20T18:45:48.623Z,936.40
2018-09-20T18:48:16.662Z,911.03
2018-09-20T18:50:46.667Z,932.77
2018-09-20T18:53:14.757Z,835.37
2018-09-20T18:55:42.634Z,913.57
2018-09-20T18:58:10.537Z,837.97
2018-09-20T19:00:47.992Z,886.97
2018-09-20T19:03:19.502Z,879.53
2018-09-20T19:05:47.707Z,903.33
2018-09-20T19:08:15.594Z,964.27
2018-09-20T19:10:43.482Z,854.60
2018-09-20T19:13:11.327Z,868.93
2018-09-20T19:15:39.562Z,917.60
2018-09-20T19:18:07.446Z,928.97
2018-09-20T19:20:35.294Z,903.23
2018-09-20T19:23:03.151Z,943.13
2018-09-20T19:25:31.011Z,929.50
2018-09-20T19:27:58.917Z,965.20
2018-09-20T19:30:26.781Z,999.90
2018-09-20T19:32:54.675Z,968.97
2018-09-20T19:35:22.566Z,999.90
2018-09-20T19:37:50.598Z,970.03
2018-09-20T19:40:18.472Z,999.23
2018-09-20T19:42:46.367Z,999.90
2018-09-20T19:45:14.239Z,999.90
2018-09-20T19:47:42.122Z,999.90
2018-09-20T19:50:10.062Z,995.57
2018-09-20T19:52:37.918Z,999.90
2018-09-20T19:55:05.876Z,999.90
2018-09-20T19:57:33.693Z,999.90
2018-09-20T20:00:01.731Z,999.90
2018-09-20T20:02:29.666Z,999.90
2018-09-20T20:04:57.538Z,999.90
2018-09-20T20:07:25.526Z,999.90
2018-09-20T20:09:54.603Z,999.90
2018-09-20T20:12:22.702Z,999.90
2018-09-20T20:14:50.673Z,999.90
2018-09-20T20:17:18.570Z,999.90
2018-09-20T20:19:46.498Z,999.90
2018-09-20T20:22:14.363Z,999.90
2018-09-20T20:24:42.223Z,999.90
2018-09-20T20:27:10.425Z,999.90
2018-09-20T20:29:38.310Z,999.90
2018-09-20T20:32:06.174Z,999.90
2018-09-20T20:34:34.134Z,999.90
2018-09-20T20:37:02.228Z,999.90
2018-09-20T20:39:30.111Z,999.90
2018-09-20T20:41:57.990Z,999.90
2018-09-20T20:44:25.855Z,999.90
2018-09-20T20:46:53.702Z,999.90
2018-09-20T20:49:21.554Z,999.90
2018-09-20T20:51:49.402Z,999.90
2018-09-20T20:54:17.267Z,999.90
2018-09-20T20:56:45.099Z,999.90
2018-09-20T20:59:13.064Z,999.90
2018-09-20T21:01:41.055Z,999.90
2018-09-20T21:04:09.088Z,999.90
2018-09-20T21:06:36.926Z,999.90
2018-09-20T21:09:05.928Z,999.90
2018-09-20T21:11:33.742Z,999.90
2018-09-20T21:14:01.595Z,999.90
2018-09-20T21:16:29.481Z,999.90
2018-09-20T21:18:57.377Z,999.90
2018-09-20T21:21:25.235Z,999.90
2018-09-20T21:23:53.100Z,999.90
2018-09-20T21:26:20.952Z,999.90
2018-09-20T21:28:48.819Z,999.90
2018-09-20T21:31:16.663Z,999.90
2018-09-20T21:33:44.556Z,999.90
2018-09-20T21:36:12.447Z,999.90
2018-09-20T21:38:40.301Z,999.90
2018-09-20T21:41:08.220Z,999.90
2018-09-20T21:43:36.088Z,999.90
2018-09-20T21:46:03.952Z,999.90
2018-09-20T21:48:32.027Z,999.90
2018-09-20T21:50:59.889Z,999.90
2018-09-20T21:53:27.778Z,999.90
2018-09-20T21:55:55.641Z,999.90
2018-09-20T21:58:23.494Z,999.90
2018-09-20T22:00:55.677Z,999.90
2018-09-20T22:03:23.535Z,994.20
2018-09-20T22:05:51.381Z,997.13
2018-09-20T22:08:19.237Z,999.90
2018-09-20T22:10:47.085Z,999.90
2018-09-20T22:13:14.942Z,999.83
2018-09-20T22:15:42.787Z,999.90
2018-09-20T22:18:10.658Z,999.90
2018-09-20T22:20:38.502Z,999.90
2018-09-20T22:23:06.342Z,999.90
2018-09-20T22:25:34.201Z,999.90
2018-09-20T22:28:02.041Z,999.90
2018-09-20T22:30:29.894Z,999.90
2018-09-20T22:32:57.741Z,999.90
2018-09-20T22:35:25.606Z,999.90
2018-09-20T22:37:53.462Z,999.90
2018-09-20T22:40:21.322Z,999.90
2018-09-20T22:42:49.164Z,999.90
2018-09-20T22:45:17.021Z,999.90
2018-09-20T22:47:44.858Z,999.90
2018-09-20T22:50:12.719Z,999.90
2018-09-20T22:52:40.577Z,999.90
2018-09-20T22:55:08.442Z,999.90
2018-09-20T22:57:36.286Z,999.90
2018-09-20T23:00:04.179Z,999.90
2018-09-20T23:02:32.019Z,999.90
2018-09-20T23:05:00.258Z,999.90
2018-09-20T23:07:28.105Z,999.90
2018-09-20T23:09:55.959Z,999.90
2018-09-20T23:12:23.899Z,999.90
2018-09-20T23:14:51.749Z,999.90
2018-09-20T23:17:19.601Z,999.90
2018-09-20T23:19:47.458Z,999.90
2018-09-20T23:22:15.302Z,999.90
2018-09-20T23:24:43.159Z,999.90
2018-09-20T23:27:11.066Z,999.90
2018-09-20T23:29:38.923Z,999.90
2018-09-20T23:32:06.769Z,999.90
2018-09-20T23:34:34.622Z,999.90
2018-09-20T23:37:02.490Z,999.90
2018-09-20T23:39:30.329Z,999.90
2018-09-20T23:41:58.169Z,999.90
2018-09-20T23:44:26.081Z,999.90
2018-09-20T23:46:53.927Z,999.90
2018-09-20T23:49:21.773Z,999.90
2018-09-20T23:51:49.623Z,999.90
2018-09-20T23:54:17.478Z,999.90
2018-09-20T23:56:45.321Z,999.90
2018-09-20T23:59:13.194Z,999.90
